createdAt,value
2023-03-03T00:00:09.949Z,0.06
2023-03-03T00:02:40.428Z,0.20
2023-03-03T00:05:13.170Z,0.22
2023-03-03T00:07:49.032Z,0.26
2023-03-03T00:10:19.669Z,0.31
2023-03-03T00:12:51.182Z,0.42
2023-03-03T00:15:25.114Z,0.40
2023-03-03T00:17:55.841Z,0.32
2023-03-03T00:20:37.125Z,0.30
2023-03-03T00:23:38.162Z,0.31
2023-03-03T00:26:23.812Z,0.23
2023-03-03T00:28:57.144Z,0.45
2023-03-03T00:31:36.261Z,0.10
2023-03-03T00:34:21.555Z,0.09
2023-03-03T00:36:56.297Z,0.22
2023-03-03T00:39:29.894Z,0.28
2023-03-03T00:42:03.391Z,0.16
2023-03-03T00:44:53.563Z,0.08
2023-03-03T00:47:32.799Z,0.04
2023-03-03T00:50:21.857Z,0.02
2023-03-03T00:53:07.269Z,0.19
2023-03-03T00:55:39.422Z,0.22
2023-03-03T00:58:10.200Z,0.28
2023-03-03T01:00:41.709Z,0.38
2023-03-03T01:03:18.305Z,0.10
2023-03-03T01:05:50.377Z,-0.19
2023-03-03T01:08:22.267Z,-0.30
2023-03-03T01:10:55.815Z,-0.34
2023-03-03T01:13:29.210Z,-0.21
2023-03-03T01:16:01.528Z,-0.18
2023-03-03T01:18:34.160Z,-0.06
2023-03-03T01:21:05.593Z,0.15
2023-03-03T01:23:36.774Z,0.06
2023-03-03T01:26:07.894Z,0.22
2023-03-03T01:28:38.557Z,0.12
2023-03-03T01:31:09.794Z,0.22
2023-03-03T01:33:40.435Z,0.36
2023-03-03T01:36:12.680Z,0.24
2023-03-03T01:38:44.001Z,0.20
2023-03-03T01:41:16.377Z,0.12
2023-03-03T01:43:51.443Z,0.24
2023-03-03T01:46:33.769Z,0.16
2023-03-03T01:49:09.082Z,0.12
2023-03-03T01:51:53.252Z,0.24
2023-03-03T01:54:26.840Z,0.26
2023-03-03T01:57:00.522Z,0.18
2023-03-03T01:59:34.081Z,0.16
2023-03-03T02:02:05.930Z,0.02
2023-03-03T02:04:38.375Z,-0.06
2023-03-03T02:07:11.610Z,-0.14
2023-03-03T02:10:00.259Z,-0.04
2023-03-03T02:12:36.694Z,0.08
2023-03-03T02:15:25.480Z,0.08
2023-03-03T02:18:06.854Z,0.11
2023-03-03T02:20:55.433Z,0.10
2023-03-03T02:23:43.392Z,-0.16
2023-03-03T02:26:24.482Z,-0.12
2023-03-03T02:28:55.686Z,-0.08
2023-03-03T02:31:29.853Z,-0.20
2023-03-03T02:34:01.332Z,-0.08
2023-03-03T02:36:37.727Z,-0.30
2023-03-03T02:39:23.533Z,-0.18
2023-03-03T02:42:16.511Z,-0.12
2023-03-03T02:44:47.440Z,-0.02
2023-03-03T02:47:18.031Z,-0.08
2023-03-03T02:49:48.521Z,-0.28
2023-03-03T02:52:19.114Z,-0.18
2023-03-03T02:54:51.891Z,-0.18
2023-03-03T02:57:22.453Z,-0.08
2023-03-03T02:59:53.170Z,-0.17
2023-03-03T03:02:23.813Z,-0.39
2023-03-03T03:04:55.487Z,-0.37
2023-03-03T03:07:26.728Z,-0.24
2023-03-03T03:09:57.266Z,-0.40
2023-03-03T03:12:30.184Z,-0.06
2023-03-03T03:15:00.994Z,-0.28
2023-03-03T03:17:32.101Z,-0.24
2023-03-03T03:20:02.690Z,-0.10
2023-03-03T03:22:33.349Z,-0.16
2023-03-03T03:25:05.368Z,-0.12
2023-03-03T03:27:36.284Z,-0.36
2023-03-03T03:30:09.307Z,-0.30
2023-03-03T03:32:39.957Z,-0.41
2023-03-03T03:35:11.437Z,-0.36
2023-03-03T03:37:42.273Z,-0.42
2023-03-03T03:40:14.987Z,-0.59
2023-03-03T03:42:45.400Z,-0.66
2023-03-03T03:45:15.917Z,-0.54
2023-03-03T03:47:48.107Z,-0.30
2023-03-03T03:50:18.772Z,-0.16
2023-03-03T03:52:49.353Z,-0.23
2023-03-03T03:55:20.058Z,-0.20
2023-03-03T03:57:50.616Z,-0.44
2023-03-03T04:00:21.461Z,-0.02
2023-03-03T04:02:52.712Z,-0.46
2023-03-03T04:05:23.532Z,-0.20
2023-03-03T04:07:53.954Z,-0.38
2023-03-03T04:10:24.712Z,-0.40
2023-03-03T04:12:55.254Z,-0.42
2023-03-03T04:15:25.939Z,-0.46
2023-03-03T04:17:56.829Z,-0.34
2023-03-03T04:20:27.872Z,-0.44
2023-03-03T04:22:58.572Z,-0.34
2023-03-03T04:25:29.197Z,-0.40
2023-03-03T04:27:59.671Z,-0.31
2023-03-03T04:30:30.353Z,-0.60
2023-03-03T04:33:00.897Z,-0.46
2023-03-03T04:35:31.420Z,-0.20
2023-03-03T04:38:05.863Z,-0.77
2023-03-03T04:40:36.373Z,-0.72
2023-03-03T04:43:06.964Z,-0.62
2023-03-03T04:45:37.886Z,-0.64
2023-03-03T04:48:10.057Z,-0.62
2023-03-03T04:50:41.061Z,-0.58
2023-03-03T04:53:12.104Z,-0.61
2023-03-03T04:55:42.633Z,-0.84
2023-03-03T04:58:13.809Z,-0.73
2023-03-03T05:00:44.226Z,-0.53
2023-03-03T05:03:14.841Z,-0.52
2023-03-03T05:05:47.219Z,-0.36
2023-03-03T05:08:19.410Z,-0.61
2023-03-03T05:10:55.303Z,-0.62
2023-03-03T05:13:27.282Z,-0.58
2023-03-03T05:15:58.178Z,-0.66
2023-03-03T05:18:30.707Z,-0.48
2023-03-03T05:21:01.214Z,-0.50
2023-03-03T05:23:32.074Z,-0.46
2023-03-03T05:26:02.727Z,-0.72
2023-03-03T05:28:34.763Z,-0.50
2023-03-03T05:31:05.439Z,-0.45
2023-03-03T05:33:35.957Z,-0.66
2023-03-03T05:36:06.896Z,-0.56
2023-03-03T05:38:43.033Z,-0.42
2023-03-03T05:41:13.712Z,-0.64
2023-03-03T05:43:45.946Z,-0.71
2023-03-03T05:46:16.454Z,-0.79
2023-03-03T05:48:53.829Z,-0.80
2023-03-03T05:51:19.507Z,-0.83
2023-03-03T05:53:50.229Z,-0.94
2023-03-03T05:56:20.668Z,-0.88
2023-03-03T05:58:51.257Z,-0.72
2023-03-03T06:01:22.213Z,-0.56
2023-03-03T06:03:52.883Z,-0.64
2023-03-03T06:06:23.308Z,-0.60
2023-03-03T06:08:56.201Z,-0.48
2023-03-03T06:11:26.245Z,-0.34
2023-03-03T06:13:59.377Z,-0.49
2023-03-03T06:16:30.226Z,-0.83
2023-03-03T06:19:01.373Z,-0.88
2023-03-03T06:21:32.392Z,-0.90
2023-03-03T06:24:02.917Z,-0.98
2023-03-03T06:26:33.862Z,-0.98
2023-03-03T06:29:04.410Z,-1.11
2023-03-03T06:31:35.773Z,-0.92
2023-03-03T06:34:06.576Z,-0.88
2023-03-03T06:36:38.449Z,-1.08
2023-03-03T06:39:08.946Z,-1.05
2023-03-03T06:41:39.976Z,-0.90
2023-03-03T06:44:12.231Z,-0.84
2023-03-03T06:46:42.660Z,-0.64
2023-03-03T06:49:13.272Z,-0.58
2023-03-03T06:51:45.865Z,-0.92
2023-03-03T06:54:21.906Z,-0.90
2023-03-03T06:56:55.643Z,-0.93
2023-03-03T06:59:28.795Z,-1.01
2023-03-03T07:01:59.539Z,-0.92
2023-03-03T07:04:33.823Z,-1.02
2023-03-03T07:07:25.720Z,-0.91
2023-03-03T07:09:57.637Z,-0.82
2023-03-03T07:12:31.178Z,-0.62
2023-03-03T07:15:06.345Z,-0.45
2023-03-03T07:17:39.270Z,-0.56
2023-03-03T07:20:27.605Z,-0.48
2023-03-03T07:22:59.102Z,-0.33
2023-03-03T07:25:36.439Z,-0.52
2023-03-03T07:28:29.891Z,-0.46
2023-03-03T07:31:00.683Z,-0.42
2023-03-03T07:33:34.398Z,-0.28
2023-03-03T07:36:07.413Z,-0.20
2023-03-03T07:38:45.468Z,-0.14
2023-03-03T07:41:23.534Z,-0.30
2023-03-03T07:44:02.534Z,-0.56
2023-03-03T07:46:49.305Z,-0.49
2023-03-03T07:49:31.826Z,-0.40
2023-03-03T07:52:03.421Z,-0.12
2023-03-03T07:54:40.356Z,-0.24
2023-03-03T07:57:21.496Z,-0.32
2023-03-03T08:00:01.604Z,-0.22
2023-03-03T08:03:05.219Z,-0.12
2023-03-03T08:05:43.533Z,-0.48
2023-03-03T08:08:23.739Z,-0.12
2023-03-03T08:10:56.249Z,-0.16
2023-03-03T08:13:38.586Z,0.18
2023-03-03T08:16:15.062Z,0.24
2023-03-03T08:18:51.505Z,0.48
2023-03-03T08:21:25.041Z,0.27
2023-03-03T08:23:55.543Z,0.30
2023-03-03T08:26:27.484Z,0.31
2023-03-03T08:28:58.085Z,0.55
2023-03-03T08:31:40.703Z,0.64
2023-03-03T08:34:03.879Z,0.64
2023-03-03T08:36:35.239Z,0.66
2023-03-03T08:39:06.723Z,0.72
2023-03-03T08:41:37.238Z,0.78
2023-03-03T08:44:08.222Z,0.59
2023-03-03T08:46:39.279Z,0.46
2023-03-03T08:49:09.947Z,0.92
2023-03-03T08:51:41.927Z,0.80
2023-03-03T08:54:12.606Z,1.02
2023-03-03T08:56:43.347Z,1.00
2023-03-03T08:59:14.332Z,0.64
2023-03-03T09:01:45.572Z,1.04
2023-03-03T09:04:16.191Z,1.37
2023-03-03T09:06:46.852Z,1.18
2023-03-03T09:09:17.420Z,1.39
2023-03-03T09:11:48.104Z,1.58
2023-03-03T09:14:21.149Z,1.66
2023-03-03T09:16:56.429Z,1.94
2023-03-03T09:19:32.567Z,1.94
2023-03-03T09:22:24.102Z,2.05
2023-03-03T09:25:00.306Z,2.07
2023-03-03T09:27:33.354Z,1.96
2023-03-03T09:30:07.996Z,2.20
2023-03-03T09:32:42.993Z,2.12
2023-03-03T09:35:37.577Z,2.16
2023-03-03T09:38:32.355Z,1.75
2023-03-03T09:41:11.860Z,1.70
2023-03-03T09:44:12.278Z,1.90
2023-03-03T09:47:22.177Z,1.94
2023-03-03T09:49:56.544Z,2.16
2023-03-03T09:52:53.746Z,2.06
2023-03-03T09:55:30.590Z,2.13
2023-03-03T09:58:26.632Z,2.16
2023-03-03T10:01:22.820Z,2.10
2023-03-03T10:04:30.084Z,2.57
2023-03-03T10:07:24.607Z,2.65
2023-03-03T10:10:24.253Z,2.24
2023-03-03T10:13:34.548Z,1.44
2023-03-03T10:16:14.375Z,1.94
2023-03-03T10:18:54.120Z,2.37
2023-03-03T10:21:42.632Z,2.80
2023-03-03T10:24:43.733Z,2.58
2023-03-03T10:27:19.761Z,2.62
2023-03-03T10:29:57.300Z,2.48
2023-03-03T10:32:52.544Z,2.36
2023-03-03T10:35:26.300Z,2.47
2023-03-03T10:38:02.898Z,2.45
2023-03-03T10:40:40.341Z,2.52
2023-03-03T10:43:32.323Z,2.60
2023-03-03T10:46:23.256Z,2.90
2023-03-03T10:49:02.575Z,2.97
2023-03-03T10:51:55.245Z,2.96
2023-03-03T10:54:30.570Z,3.04
2023-03-03T10:57:13.409Z,3.08
2023-03-03T11:00:17.906Z,2.72
2023-03-03T11:03:12.149Z,2.24
2023-03-03T11:05:54.259Z,2.24
2023-03-03T11:08:46.130Z,2.26
2023-03-03T11:11:32.032Z,2.64
2023-03-03T11:14:20.762Z,3.09
2023-03-03T11:16:54.342Z,2.89
2023-03-03T11:19:53.789Z,3.03
2023-03-03T11:22:42.063Z,3.04
2023-03-03T11:25:34.561Z,2.79
2023-03-03T11:28:17.326Z,3.00
2023-03-03T11:31:14.947Z,3.02
2023-03-03T11:33:54.608Z,3.12
2023-03-03T11:36:31.288Z,3.40
2023-03-03T11:39:15.966Z,3.16
2023-03-03T11:42:01.334Z,3.22
2023-03-03T11:44:44.834Z,3.12
2023-03-03T11:47:31.797Z,2.96
2023-03-03T11:50:11.169Z,3.26
2023-03-03T11:52:56.899Z,3.22
2023-03-03T11:55:30.481Z,3.15
2023-03-03T11:58:25.454Z,3.30
2023-03-03T12:01:20.064Z,3.92
2023-03-03T12:03:56.079Z,3.61
2023-03-03T12:06:41.659Z,3.73
2023-03-03T12:09:28.104Z,3.58
2023-03-03T12:12:19.751Z,3.70
2023-03-03T12:15:06.208Z,3.68
2023-03-03T12:18:08.122Z,3.47
2023-03-03T12:21:03.145Z,3.34
2023-03-03T12:23:54.978Z,3.86
2023-03-03T12:26:50.899Z,4.01
2023-03-03T12:29:46.900Z,3.36
2023-03-03T12:32:23.229Z,3.46
2023-03-03T12:35:06.055Z,3.52
2023-03-03T12:37:51.746Z,4.16
2023-03-03T12:40:29.034Z,3.71
2023-03-03T12:43:19.171Z,3.84
2023-03-03T12:46:19.815Z,3.52
2023-03-03T12:48:50.386Z,3.48
2023-03-03T12:51:32.696Z,3.77
2023-03-03T12:54:37.370Z,3.64
2023-03-03T12:57:10.927Z,3.84
2023-03-03T12:59:53.369Z,3.64
2023-03-03T13:02:49.609Z,3.96
2023-03-03T13:05:44.687Z,3.52
2023-03-03T13:08:40.714Z,3.70
2023-03-03T13:11:36.077Z,3.98
2023-03-03T13:14:42.722Z,3.91
2023-03-03T13:17:22.375Z,3.96
2023-03-03T13:20:02.594Z,3.43
2023-03-03T13:22:36.388Z,3.64
2023-03-03T13:25:32.035Z,3.61
2023-03-03T13:28:09.062Z,3.80
2023-03-03T13:30:45.769Z,3.67
2023-03-03T13:33:31.805Z,3.70
2023-03-03T13:36:14.451Z,3.71
2023-03-03T13:38:50.834Z,3.54
2023-03-03T13:41:50.283Z,3.66
2023-03-03T13:44:33.561Z,3.64
2023-03-03T13:47:16.972Z,4.08
2023-03-03T13:50:02.980Z,4.04
2023-03-03T13:52:36.591Z,3.80
2023-03-03T13:55:31.599Z,3.96
2023-03-03T13:58:05.144Z,4.10
2023-03-03T14:00:43.125Z,4.32
2023-03-03T14:03:29.583Z,4.36
2023-03-03T14:06:18.558Z,4.03
2023-03-03T14:09:10.250Z,3.92
2023-03-03T14:11:44.264Z,3.76
2023-03-03T14:14:36.308Z,3.84
2023-03-03T14:17:31.297Z,3.82
2023-03-03T14:20:21.501Z,3.94
2023-03-03T14:23:00.952Z,3.98
2023-03-03T14:25:57.788Z,4.00
2023-03-03T14:28:30.992Z,3.84
2023-03-03T14:31:05.736Z,3.66
2023-03-03T14:33:36.258Z,3.83
2023-03-03T14:36:11.030Z,3.63
2023-03-03T14:38:45.947Z,3.67
2023-03-03T14:41:19.304Z,3.60
2023-03-03T14:44:18.716Z,3.73
2023-03-03T14:47:09.253Z,4.10
2023-03-03T14:49:41.156Z,4.18
2023-03-03T14:52:17.947Z,4.20
2023-03-03T14:54:51.591Z,4.35
2023-03-03T14:57:26.678Z,4.22
2023-03-03T15:00:16.699Z,4.16
2023-03-03T15:03:05.983Z,4.08
2023-03-03T15:05:36.783Z,4.25
2023-03-03T15:08:10.320Z,4.34
2023-03-03T15:10:44.243Z,4.50
2023-03-03T15:13:24.070Z,4.48
2023-03-03T15:16:09.510Z,4.49
2023-03-03T15:19:16.404Z,4.32
2023-03-03T15:21:59.267Z,4.58
2023-03-03T15:24:42.329Z,4.81
2023-03-03T15:27:21.661Z,4.69
2023-03-03T15:30:08.367Z,4.62
2023-03-03T15:32:47.896Z,4.68
2023-03-03T15:35:38.470Z,4.66
2023-03-03T15:38:14.608Z,4.44
2023-03-03T15:40:52.063Z,4.20
2023-03-03T15:43:46.629Z,4.22
2023-03-03T15:46:41.898Z,4.31
2023-03-03T15:49:32.905Z,4.41
2023-03-03T15:52:23.726Z,4.46
2023-03-03T15:55:30.728Z,4.55
2023-03-03T15:58:04.254Z,4.45
2023-03-03T16:00:55.284Z,4.49
2023-03-03T16:03:31.481Z,4.47
2023-03-03T16:06:13.905Z,4.75
2023-03-03T16:09:04.406Z,4.50
2023-03-03T16:11:56.352Z,4.58
2023-03-03T16:14:51.408Z,4.57
2023-03-03T16:17:40.426Z,4.48
2023-03-03T16:20:33.047Z,4.61
2023-03-03T16:23:23.224Z,4.42
2023-03-03T16:26:18.597Z,4.58
2023-03-03T16:28:52.073Z,4.44
2023-03-03T16:31:32.222Z,4.30
2023-03-03T16:34:18.125Z,4.42
2023-03-03T16:37:17.179Z,4.42
2023-03-03T16:39:56.335Z,4.18
2023-03-03T16:42:34.774Z,4.26
2023-03-03T16:45:31.980Z,4.08
2023-03-03T16:48:27.047Z,3.91
2023-03-03T16:51:03.805Z,3.78
2023-03-03T16:54:04.898Z,3.94
2023-03-03T16:56:58.068Z,3.74
2023-03-03T16:59:47.071Z,3.55
2023-03-03T17:02:38.961Z,3.52
2023-03-03T17:05:18.397Z,3.48
2023-03-03T17:08:03.679Z,3.54
2023-03-03T17:10:40.071Z,3.62
2023-03-03T17:13:26.771Z,3.45
2023-03-03T17:16:21.932Z,3.64
2023-03-03T17:19:09.097Z,3.48
2023-03-03T17:22:02.173Z,3.38
2023-03-03T17:24:47.484Z,3.34
2023-03-03T17:27:40.225Z,3.38
2023-03-03T17:30:26.727Z,3.32
2023-03-03T17:33:06.328Z,3.38
2023-03-03T17:35:50.044Z,3.38
2023-03-03T17:38:58.306Z,3.52
2023-03-03T17:41:35.749Z,3.71
2023-03-03T17:44:18.351Z,3.74
2023-03-03T17:46:53.752Z,3.82
2023-03-03T17:49:45.208Z,3.99
2023-03-03T17:52:33.721Z,4.08
2023-03-03T17:55:26.947Z,4.10
2023-03-03T17:58:21.738Z,4.17
2023-03-03T18:00:55.308Z,4.18
2023-03-03T18:03:29.762Z,4.15
2023-03-03T18:06:32.264Z,4.30
2023-03-03T18:09:26.408Z,4.22
2023-03-03T18:12:29.257Z,4.12
2023-03-03T18:15:22.403Z,4.29
2023-03-03T18:18:01.802Z,4.17
2023-03-03T18:20:50.299Z,4.22
2023-03-03T18:23:37.407Z,4.24
2023-03-03T18:26:33.489Z,4.11
2023-03-03T18:29:19.483Z,4.18
2023-03-03T18:31:52.999Z,4.06
2023-03-03T18:34:43.960Z,4.12
2023-03-03T18:37:38.560Z,4.10
2023-03-03T18:40:13.706Z,4.04
2023-03-03T18:42:45.947Z,4.07
2023-03-03T18:45:24.552Z,4.15
2023-03-03T18:48:10.645Z,4.14
2023-03-03T18:50:49.329Z,4.13
2023-03-03T18:53:30.301Z,4.08
2023-03-03T18:56:08.460Z,4.29
2023-03-03T18:58:43.850Z,4.09
2023-03-03T19:01:36.273Z,4.18
2023-03-03T19:04:19.707Z,4.14
2023-03-03T19:06:56.079Z,4.09
2023-03-03T19:09:46.912Z,4.12
2023-03-03T19:12:20.255Z,4.15
2023-03-03T19:14:51.895Z,3.96
2023-03-03T19:17:29.421Z,4.08
2023-03-03T19:20:14.367Z,4.01
2023-03-03T19:22:47.606Z,3.98
2023-03-03T19:25:28.527Z,3.96
2023-03-03T19:28:26.585Z,3.99
2023-03-03T19:31:08.980Z,3.88
2023-03-03T19:33:56.928Z,3.95
2023-03-03T19:36:31.495Z,4.04
2023-03-03T19:39:17.710Z,4.05
2023-03-03T19:42:20.053Z,3.96
2023-03-03T19:45:05.564Z,4.04
2023-03-03T19:47:46.239Z,4.02
2023-03-03T19:50:25.909Z,4.16
2023-03-03T19:53:22.102Z,4.00
2023-03-03T19:56:07.395Z,4.11
2023-03-03T19:58:59.736Z,4.11
2023-03-03T20:01:53.018Z,4.17
2023-03-03T20:04:35.660Z,4.08
2023-03-03T20:07:27.770Z,4.20
2023-03-03T20:10:21.949Z,4.22
2023-03-03T20:13:12.266Z,4.27
2023-03-03T20:15:53.650Z,4.22
2023-03-03T20:18:29.782Z,4.08
2023-03-03T20:21:19.696Z,4.17
2023-03-03T20:24:02.409Z,4.17
2023-03-03T20:26:44.880Z,4.06
2023-03-03T20:29:33.394Z,4.11
2023-03-03T20:32:22.334Z,4.07
2023-03-03T20:35:04.679Z,4.01
2023-03-03T20:37:50.791Z,4.03
2023-03-03T20:40:48.024Z,4.04
2023-03-03T20:43:27.626Z,4.06
2023-03-03T20:46:19.457Z,3.98
2023-03-03T20:48:56.236Z,4.14
2023-03-03T20:51:35.683Z,4.15
2023-03-03T20:54:24.463Z,4.08
2023-03-03T20:57:03.570Z,4.12
2023-03-03T20:59:37.146Z,4.13
2023-03-03T21:02:31.996Z,4.05
2023-03-03T21:05:22.360Z,4.06
2023-03-03T21:07:58.222Z,4.14
2023-03-03T21:10:31.597Z,3.99
2023-03-03T21:13:22.039Z,4.00
2023-03-03T21:15:58.509Z,4.02
2023-03-03T21:18:31.840Z,3.94
2023-03-03T21:21:04.530Z,3.85
2023-03-03T21:23:36.491Z,3.93
2023-03-03T21:26:06.902Z,3.92
2023-03-03T21:28:37.811Z,3.87
2023-03-03T21:31:18.010Z,3.82
2023-03-03T21:34:00.326Z,3.80
2023-03-03T21:36:40.327Z,3.86
2023-03-03T21:39:30.421Z,3.88
2023-03-03T21:42:11.984Z,3.88
2023-03-03T21:44:50.343Z,3.89
2023-03-03T21:47:24.786Z,3.87
2023-03-03T21:49:55.850Z,3.72
2023-03-03T21:52:26.352Z,3.90
2023-03-03T21:54:57.063Z,3.93
2023-03-03T21:57:32.582Z,3.84
2023-03-03T22:00:00.773Z,3.86
2023-03-03T22:02:31.508Z,3.80
2023-03-03T22:05:03.728Z,3.74
2023-03-03T22:07:34.819Z,3.76
2023-03-03T22:10:08.361Z,3.73
2023-03-03T22:12:38.854Z,3.72
2023-03-03T22:15:11.164Z,3.74
2023-03-03T22:17:43.195Z,3.80
2023-03-03T22:20:16.930Z,3.72
2023-03-03T22:22:47.641Z,3.67
2023-03-03T22:25:18.392Z,3.66
2023-03-03T22:27:48.811Z,3.82
2023-03-03T22:30:20.921Z,3.66
2023-03-03T22:32:54.938Z,3.72
2023-03-03T22:35:27.190Z,3.62
2023-03-03T22:37:59.424Z,3.74
2023-03-03T22:40:31.512Z,4.41
2023-03-03T22:43:03.510Z,5.42
2023-03-03T22:45:37.947Z,5.71
2023-03-03T22:48:09.553Z,4.86
2023-03-03T22:50:45.457Z,4.61
2023-03-03T22:53:16.621Z,4.08
2023-03-03T22:55:47.602Z,3.88
2023-03-03T22:58:22.719Z,3.72
2023-03-03T23:00:56.172Z,3.56
2023-03-03T23:03:26.623Z,3.47
2023-03-03T23:06:03.277Z,3.34
2023-03-03T23:08:33.883Z,3.20
2023-03-03T23:11:04.382Z,3.12
2023-03-03T23:13:35.297Z,3.08
2023-03-03T23:16:06.498Z,2.94
2023-03-03T23:18:38.770Z,2.90
2023-03-03T23:21:09.464Z,2.90
2023-03-03T23:23:40.362Z,2.64
2023-03-03T23:26:10.927Z,2.60
2023-03-03T23:28:41.564Z,2.56
2023-03-03T23:31:13.047Z,2.57
2023-03-03T23:33:43.797Z,2.36
2023-03-03T23:36:15.496Z,2.34
2023-03-03T23:38:45.977Z,2.30
2023-03-03T23:41:16.599Z,2.30
2023-03-03T23:43:47.201Z,2.30
2023-03-03T23:46:19.563Z,2.14
2023-03-03T23:48:50.091Z,2.18
2023-03-03T23:51:20.673Z,2.28
2023-03-03T23:53:51.241Z,2.17
2023-03-03T23:56:21.686Z,2.10
2023-03-03T23:58:52.257Z,2.15
